sensor_id;sensor_type;location;lat;lon;timestamp;P1;durP1;ratioP1;P2;durP2;ratioP2
49738;SDS011;53662;50.114;8.626;2023-11-21T00:02:20;3.17;;;1.90;;
49738;SDS011;53662;50.114;8.626;2023-11-21T00:04:47;9.00;;;2.20;;
49738;SDS011;53662;50.114;8.626;2023-11-21T00:07:13;5.97;;;2.08;;
49738;SDS011;53662;50.114;8.626;2023-11-21T00:09:39;5.20;;;2.10;;
49738;SDS011;53662;50.114;8.626;2023-11-21T00:12:06;5.18;;;2.05;;
49738;SDS011;53662;50.114;8.626;2023-11-21T00:14:34;7.13;;;2.05;;
49738;SDS011;53662;50.114;8.626;2023-11-21T00:17:00;6.35;;;2.50;;
49738;SDS011;53662;50.114;8.626;2023-11-21T00:19:26;9.93;;;2.30;;
49738;SDS011;53662;50.114;8.626;2023-11-21T00:21:52;9.23;;;2.17;;
49738;SDS011;53662;50.114;8.626;2023-11-21T00:24:18;10.38;;;2.20;;
49738;SDS011;53662;50.114;8.626;2023-11-21T00:26:44;5.45;;;2.10;;
49738;SDS011;53662;50.114;8.626;2023-11-21T00:29:11;5.15;;;2.00;;
49738;SDS011;53662;50.114;8.626;2023-11-21T00:31:37;4.47;;;2.53;;
49738;SDS011;53662;50.114;8.626;2023-11-21T00:34:03;6.22;;;2.17;;
49738;SDS011;53662;50.114;8.626;2023-11-21T00:36:30;3.22;;;1.70;;
49738;SDS011;53662;50.114;8.626;2023-11-21T00:38:56;6.57;;;2.10;;
49738;SDS011;53662;50.114;8.626;2023-11-21T00:41:22;3.97;;;2.13;;
49738;SDS011;53662;50.114;8.626;2023-11-21T00:43:48;9.90;;;2.15;;
49738;SDS011;53662;50.114;8.626;2023-11-21T00:46:14;8.85;;;2.25;;
49738;SDS011;53662;50.114;8.626;2023-11-21T00:48:40;10.80;;;2.45;;
49738;SDS011;53662;50.114;8.626;2023-11-21T00:51:06;5.20;;;2.20;;
49738;SDS011;53662;50.114;8.626;2023-11-21T00:53:32;4.05;;;1.80;;
49738;SDS011;53662;50.114;8.626;2023-11-21T00:55:58;6.68;;;2.55;;
49738;SDS011;53662;50.114;8.626;2023-11-21T00:58:24;8.55;;;2.05;;
49738;SDS011;53662;50.114;8.626;2023-11-21T01:00:50;6.20;;;2.28;;
49738;SDS011;53662;50.114;8.626;2023-11-21T01:03:16;4.80;;;2.28;;
49738;SDS011;53662;50.114;8.626;2023-11-21T01:05:42;4.45;;;2.38;;
49738;SDS011;53662;50.114;8.626;2023-11-21T01:08:08;3.72;;;2.10;;
49738;SDS011;53662;50.114;8.626;2023-11-21T01:10:34;2.42;;;2.20;;
49738;SDS011;53662;50.114;8.626;2023-11-21T01:13:00;3.95;;;2.03;;
49738;SDS011;53662;50.114;8.626;2023-11-21T01:15:26;3.50;;;2.30;;
49738;SDS011;53662;50.114;8.626;2023-11-21T01:17:52;5.10;;;2.30;;
49738;SDS011;53662;50.114;8.626;2023-11-21T01:20:18;5.13;;;2.15;;
49738;SDS011;53662;50.114;8.626;2023-11-21T01:22:44;5.18;;;2.10;;
49738;SDS011;53662;50.114;8.626;2023-11-21T01:25:10;5.03;;;2.45;;
49738;SDS011;53662;50.114;8.626;2023-11-21T01:27:36;5.97;;;2.42;;
49738;SDS011;53662;50.114;8.626;2023-11-21T01:30:02;4.50;;;2.17;;
49738;SDS011;53662;50.114;8.626;2023-11-21T01:32:29;4.05;;;2.45;;
49738;SDS011;53662;50.114;8.626;2023-11-21T01:34:55;2.60;;;2.30;;
49738;SDS011;53662;50.114;8.626;2023-11-21T01:37:21;3.10;;;2.47;;
49738;SDS011;53662;50.114;8.626;2023-11-21T01:39:47;6.63;;;2.60;;
49738;SDS011;53662;50.114;8.626;2023-11-21T01:42:13;7.07;;;2.38;;
49738;SDS011;53662;50.114;8.626;2023-11-21T01:44:39;4.20;;;2.33;;
49738;SDS011;53662;50.114;8.626;2023-11-21T01:47:05;7.07;;;2.25;;
49738;SDS011;53662;50.114;8.626;2023-11-21T01:49:32;5.10;;;2.60;;
49738;SDS011;53662;50.114;8.626;2023-11-21T01:51:58;3.58;;;2.72;;
49738;SDS011;53662;50.114;8.626;2023-11-21T01:54:24;6.78;;;2.45;;
49738;SDS011;53662;50.114;8.626;2023-11-21T01:56:50;9.30;;;2.90;;
49738;SDS011;53662;50.114;8.626;2023-11-21T01:59:20;5.40;;;3.08;;
49738;SDS011;53662;50.114;8.626;2023-11-21T02:01:46;7.80;;;3.03;;
49738;SDS011;53662;50.114;8.626;2023-11-21T02:04:13;4.32;;;2.92;;
49738;SDS011;53662;50.114;8.626;2023-11-21T02:06:39;5.57;;;2.80;;
49738;SDS011;53662;50.114;8.626;2023-11-21T02:09:05;4.93;;;3.22;;
49738;SDS011;53662;50.114;8.626;2023-11-21T02:11:31;3.78;;;2.72;;
49738;SDS011;53662;50.114;8.626;2023-11-21T02:13:59;3.35;;;3.05;;
49738;SDS011;53662;50.114;8.626;2023-11-21T02:16:26;7.70;;;3.40;;
49738;SDS011;53662;50.114;8.626;2023-11-21T02:18:52;9.55;;;3.20;;
49738;SDS011;53662;50.114;8.626;2023-11-21T02:21:19;10.60;;;3.60;;
49738;SDS011;53662;50.114;8.626;2023-11-21T02:23:45;6.00;;;3.45;;
49738;SDS011;53662;50.114;8.626;2023-11-21T02:26:11;3.92;;;3.00;;
49738;SDS011;53662;50.114;8.626;2023-11-21T02:28:38;4.43;;;3.45;;
49738;SDS011;53662;50.114;8.626;2023-11-21T02:31:04;5.75;;;3.80;;
49738;SDS011;53662;50.114;8.626;2023-11-21T02:33:30;3.70;;;3.33;;
49738;SDS011;53662;50.114;8.626;2023-11-21T02:35:59;7.10;;;3.25;;
49738;SDS011;53662;50.114;8.626;2023-11-21T02:38:25;2.65;;;2.47;;
49738;SDS011;53662;50.114;8.626;2023-11-21T02:40:51;2.13;;;2.00;;
49738;SDS011;53662;50.114;8.626;2023-11-21T02:43:17;4.95;;;2.90;;
49738;SDS011;53662;50.114;8.626;2023-11-21T02:45:43;5.13;;;3.15;;
49738;SDS011;53662;50.114;8.626;2023-11-21T02:48:09;3.25;;;2.72;;
49738;SDS011;53662;50.114;8.626;2023-11-21T02:50:35;5.00;;;2.63;;
49738;SDS011;53662;50.114;8.626;2023-11-21T02:53:01;3.65;;;3.10;;
49738;SDS011;53662;50.114;8.626;2023-11-21T02:55:27;2.53;;;2.33;;
49738;SDS011;53662;50.114;8.626;2023-11-21T02:57:54;4.82;;;2.40;;
49738;SDS011;53662;50.114;8.626;2023-11-21T03:00:21;3.80;;;2.88;;
49738;SDS011;53662;50.114;8.626;2023-11-21T03:02:49;4.60;;;2.58;;
49738;SDS011;53662;50.114;8.626;2023-11-21T03:05:15;4.80;;;2.30;;
49738;SDS011;53662;50.114;8.626;2023-11-21T03:07:41;2.40;;;2.30;;
49738;SDS011;53662;50.114;8.626;2023-11-21T03:10:07;2.42;;;2.17;;
49738;SDS011;53662;50.114;8.626;2023-11-21T03:12:37;1.20;;;1.20;;
49738;SDS011;53662;50.114;8.626;2023-11-21T03:15:04;1.30;;;1.30;;
49738;SDS011;53662;50.114;8.626;2023-11-21T03:17:31;1.20;;;1.20;;
49738;SDS011;53662;50.114;8.626;2023-11-21T03:19:58;1.45;;;1.35;;
49738;SDS011;53662;50.114;8.626;2023-11-21T03:22:24;1.70;;;1.60;;
49738;SDS011;53662;50.114;8.626;2023-11-21T03:24:51;1.50;;;1.40;;
49738;SDS011;53662;50.114;8.626;2023-11-21T03:27:17;2.00;;;1.90;;
49738;SDS011;53662;50.114;8.626;2023-11-21T03:29:43;1.75;;;1.65;;
49738;SDS011;53662;50.114;8.626;2023-11-21T03:32:11;1.65;;;1.48;;
49738;SDS011;53662;50.114;8.626;2023-11-21T03:34:42;2.15;;;1.95;;
49738;SDS011;53662;50.114;8.626;2023-11-21T03:37:18;1.95;;;1.73;;
49738;SDS011;53662;50.114;8.626;2023-11-21T03:39:45;1.90;;;1.80;;
49738;SDS011;53662;50.114;8.626;2023-11-21T03:42:12;2.08;;;1.90;;
49738;SDS011;53662;50.114;8.626;2023-11-21T03:44:38;1.70;;;1.63;;
49738;SDS011;53662;50.114;8.626;2023-11-21T03:47:04;2.60;;;2.40;;
49738;SDS011;53662;50.114;8.626;2023-11-21T03:49:30;2.38;;;2.28;;
49738;SDS011;53662;50.114;8.626;2023-11-21T03:51:56;2.45;;;2.35;;
49738;SDS011;53662;50.114;8.626;2023-11-21T03:54:22;2.63;;;2.50;;
49738;SDS011;53662;50.114;8.626;2023-11-21T03:56:48;2.70;;;2.50;;
49738;SDS011;53662;50.114;8.626;2023-11-21T03:59:14;2.95;;;2.75;;
49738;SDS011;53662;50.114;8.626;2023-11-21T04:01:40;3.65;;;2.80;;
49738;SDS011;53662;50.114;8.626;2023-11-21T04:04:06;4.65;;;3.05;;
49738;SDS011;53662;50.114;8.626;2023-11-21T04:06:32;2.70;;;2.60;;
49738;SDS011;53662;50.114;8.626;2023-11-21T04:08:58;2.80;;;2.70;;
49738;SDS011;53662;50.114;8.626;2023-11-21T04:11:24;3.28;;;3.03;;
49738;SDS011;53662;50.114;8.626;2023-11-21T04:13:50;2.60;;;2.50;;
49738;SDS011;53662;50.114;8.626;2023-11-21T04:16:16;3.22;;;3.05;;
49738;SDS011;53662;50.114;8.626;2023-11-21T04:18:43;3.17;;;2.97;;
49738;SDS011;53662;50.114;8.626;2023-11-21T04:21:09;3.47;;;3.28;;
49738;SDS011;53662;50.114;8.626;2023-11-21T04:23:35;3.78;;;3.47;;
49738;SDS011;53662;50.114;8.626;2023-11-21T04:26:01;7.78;;;4.03;;
49738;SDS011;53662;50.114;8.626;2023-11-21T04:28:27;6.20;;;4.05;;
49738;SDS011;53662;50.114;8.626;2023-11-21T04:30:53;3.58;;;3.40;;
49738;SDS011;53662;50.114;8.626;2023-11-21T04:33:19;4.82;;;3.83;;
49738;SDS011;53662;50.114;8.626;2023-11-21T04:35:46;4.00;;;3.70;;
49738;SDS011;53662;50.114;8.626;2023-11-21T04:38:13;4.72;;;3.50;;
49738;SDS011;53662;50.114;8.626;2023-11-21T04:40:39;3.60;;;3.30;;
49738;SDS011;53662;50.114;8.626;2023-11-21T04:43:05;5.78;;;2.78;;
49738;SDS011;53662;50.114;8.626;2023-11-21T04:45:31;2.45;;;2.25;;
49738;SDS011;53662;50.114;8.626;2023-11-21T04:47:57;2.45;;;2.20;;
49738;SDS011;53662;50.114;8.626;2023-11-21T04:50:23;5.10;;;2.58;;
49738;SDS011;53662;50.114;8.626;2023-11-21T04:52:52;7.65;;;2.30;;
49738;SDS011;53662;50.114;8.626;2023-11-21T04:55:18;3.03;;;2.50;;
49738;SDS011;53662;50.114;8.626;2023-11-21T04:57:44;3.67;;;3.47;;
49738;SDS011;53662;50.114;8.626;2023-11-21T05:00:12;4.90;;;4.00;;
49738;SDS011;53662;50.114;8.626;2023-11-21T05:02:39;5.57;;;4.55;;
49738;SDS011;53662;50.114;8.626;2023-11-21T05:05:06;6.03;;;5.40;;
49738;SDS011;53662;50.114;8.626;2023-11-21T05:07:33;8.73;;;5.95;;
49738;SDS011;53662;50.114;8.626;2023-11-21T05:10:00;8.95;;;6.10;;
49738;SDS011;53662;50.114;8.626;2023-11-21T05:12:30;7.03;;;6.43;;
49738;SDS011;53662;50.114;8.626;2023-11-21T05:15:03;8.80;;;7.07;;
49738;SDS011;53662;50.114;8.626;2023-11-21T05:17:36;9.07;;;7.22;;
49738;SDS011;53662;50.114;8.626;2023-11-21T05:20:04;12.68;;;8.73;;
49738;SDS011;53662;50.114;8.626;2023-11-21T05:22:33;15.65;;;9.15;;
49738;SDS011;53662;50.114;8.626;2023-11-21T05:24:59;13.85;;;10.80;;
49738;SDS011;53662;50.114;8.626;2023-11-21T05:27:25;15.65;;;10.88;;
49738;SDS011;53662;50.114;8.626;2023-11-21T05:29:51;17.63;;;11.18;;
49738;SDS011;53662;50.114;8.626;2023-11-21T05:32:17;16.73;;;11.07;;
49738;SDS011;53662;50.114;8.626;2023-11-21T05:34:43;18.48;;;12.80;;
49738;SDS011;53662;50.114;8.626;2023-11-21T05:37:09;17.02;;;12.85;;
49738;SDS011;53662;50.114;8.626;2023-11-21T05:39:35;22.73;;;12.77;;
49738;SDS011;53662;50.114;8.626;2023-11-21T05:42:01;21.98;;;13.75;;
49738;SDS011;53662;50.114;8.626;2023-11-21T05:44:28;26.15;;;15.45;;
49738;SDS011;53662;50.114;8.626;2023-11-21T05:46:54;21.15;;;14.23;;
49738;SDS011;53662;50.114;8.626;2023-11-21T05:49:22;26.50;;;15.63;;
49738;SDS011;53662;50.114;8.626;2023-11-21T05:51:51;22.13;;;15.07;;
49738;SDS011;53662;50.114;8.626;2023-11-21T05:54:18;20.65;;;15.15;;
49738;SDS011;53662;50.114;8.626;2023-11-21T05:56:44;23.40;;;14.90;;
49738;SDS011;53662;50.114;8.626;2023-11-21T05:59:11;22.08;;;12.90;;
49738;SDS011;53662;50.114;8.626;2023-11-21T06:01:37;24.60;;;13.50;;
49738;SDS011;53662;50.114;8.626;2023-11-21T06:04:04;19.20;;;12.77;;
49738;SDS011;53662;50.114;8.626;2023-11-21T06:06:30;27.20;;;13.02;;
49738;SDS011;53662;50.114;8.626;2023-11-21T06:08:56;21.73;;;13.07;;
49738;SDS011;53662;50.114;8.626;2023-11-21T06:11:22;21.58;;;12.77;;
49738;SDS011;53662;50.114;8.626;2023-11-21T06:13:49;15.40;;;12.07;;
49738;SDS011;53662;50.114;8.626;2023-11-21T06:16:15;19.80;;;11.23;;
49738;SDS011;53662;50.114;8.626;2023-11-21T06:18:43;19.17;;;11.68;;
49738;SDS011;53662;50.114;8.626;2023-11-21T06:21:09;18.60;;;12.25;;
49738;SDS011;53662;50.114;8.626;2023-11-21T06:23:35;19.40;;;10.38;;
49738;SDS011;53662;50.114;8.626;2023-11-21T06:26:01;12.07;;;9.07;;
49738;SDS011;53662;50.114;8.626;2023-11-21T06:28:29;21.48;;;10.07;;
49738;SDS011;53662;50.114;8.626;2023-11-21T06:30:55;16.55;;;10.45;;
49738;SDS011;53662;50.114;8.626;2023-11-21T06:33:22;9.90;;;8.60;;
49738;SDS011;53662;50.114;8.626;2023-11-21T06:35:47;10.65;;;7.10;;
49738;SDS011;53662;50.114;8.626;2023-11-21T06:38:14;7.32;;;3.72;;
49738;SDS011;53662;50.114;8.626;2023-11-21T06:40:40;6.35;;;5.75;;
49738;SDS011;53662;50.114;8.626;2023-11-21T06:43:06;5.05;;;4.65;;
49738;SDS011;53662;50.114;8.626;2023-11-21T06:45:33;5.53;;;4.93;;
49738;SDS011;53662;50.114;8.626;2023-11-21T06:47:59;4.70;;;4.30;;
49738;SDS011;53662;50.114;8.626;2023-11-21T06:50:25;5.78;;;4.57;;
49738;SDS011;53662;50.114;8.626;2023-11-21T06:52:51;7.10;;;4.63;;
49738;SDS011;53662;50.114;8.626;2023-11-21T06:55:17;9.55;;;5.50;;
49738;SDS011;53662;50.114;8.626;2023-11-21T06:57:43;6.43;;;4.10;;
49738;SDS011;53662;50.114;8.626;2023-11-21T07:00:09;4.15;;;3.65;;
49738;SDS011;53662;50.114;8.626;2023-11-21T07:02:36;4.60;;;3.38;;
49738;SDS011;53662;50.114;8.626;2023-11-21T07:05:03;4.68;;;3.90;;
49738;SDS011;53662;50.114;8.626;2023-11-21T07:07:29;8.30;;;4.30;;
49738;SDS011;53662;50.114;8.626;2023-11-21T07:09:55;7.15;;;4.00;;
49738;SDS011;53662;50.114;8.626;2023-11-21T07:12:20;7.88;;;3.90;;
49738;SDS011;53662;50.114;8.626;2023-11-21T07:14:48;14.15;;;4.10;;
49738;SDS011;53662;50.114;8.626;2023-11-21T07:17:14;17.80;;;4.82;;
49738;SDS011;53662;50.114;8.626;2023-11-21T07:19:42;10.18;;;5.05;;
49738;SDS011;53662;50.114;8.626;2023-11-21T07:22:08;16.38;;;5.57;;
49738;SDS011;53662;50.114;8.626;2023-11-21T07:24:34;9.52;;;5.55;;
49738;SDS011;53662;50.114;8.626;2023-11-21T07:27:01;13.73;;;4.65;;
49738;SDS011;53662;50.114;8.626;2023-11-21T07:29:29;9.55;;;5.32;;
49738;SDS011;53662;50.114;8.626;2023-11-21T07:31:55;19.77;;;6.72;;
49738;SDS011;53662;50.114;8.626;2023-11-21T07:34:21;11.00;;;5.28;;
49738;SDS011;53662;50.114;8.626;2023-11-21T07:36:47;21.20;;;5.82;;
49738;SDS011;53662;50.114;8.626;2023-11-21T07:39:13;17.55;;;6.70;;
49738;SDS011;53662;50.114;8.626;2023-11-21T07:41:41;60.70;;;8.60;;
49738;SDS011;53662;50.114;8.626;2023-11-21T07:46:38;24.13;;;6.68;;
49738;SDS011;53662;50.114;8.626;2023-11-21T07:49:05;19.88;;;6.80;;
49738;SDS011;53662;50.114;8.626;2023-11-21T07:51:31;11.65;;;5.75;;
49738;SDS011;53662;50.114;8.626;2023-11-21T07:53:57;13.20;;;5.97;;
49738;SDS011;53662;50.114;8.626;2023-11-21T07:56:23;38.90;;;8.55;;
49738;SDS011;53662;50.114;8.626;2023-11-21T07:58:49;13.82;;;6.22;;
49738;SDS011;53662;50.114;8.626;2023-11-21T08:01:15;40.53;;;7.97;;
49738;SDS011;53662;50.114;8.626;2023-11-21T08:03:41;9.15;;;6.35;;
49738;SDS011;53662;50.114;8.626;2023-11-21T08:06:07;35.47;;;6.95;;
49738;SDS011;53662;50.114;8.626;2023-11-21T08:08:33;31.00;;;7.80;;
49738;SDS011;53662;50.114;8.626;2023-11-21T08:10:59;33.38;;;8.23;;
49738;SDS011;53662;50.114;8.626;2023-11-21T08:13:27;35.47;;;8.23;;
49738;SDS011;53662;50.114;8.626;2023-11-21T08:15:53;18.70;;;7.25;;
49738;SDS011;53662;50.114;8.626;2023-11-21T08:18:19;40.38;;;7.45;;
49738;SDS011;53662;50.114;8.626;2023-11-21T08:20:45;16.70;;;7.10;;
49738;SDS011;53662;50.114;8.626;2023-11-21T08:23:15;7.13;;;5.55;;
49738;SDS011;53662;50.114;8.626;2023-11-21T08:25:42;19.38;;;6.57;;
49738;SDS011;53662;50.114;8.626;2023-11-21T08:28:08;32.60;;;7.85;;
49738;SDS011;53662;50.114;8.626;2023-11-21T08:30:34;18.08;;;6.30;;
49738;SDS011;53662;50.114;8.626;2023-11-21T08:33:00;64.60;;;9.35;;
49738;SDS011;53662;50.114;8.626;2023-11-21T08:35:28;11.90;;;5.95;;
49738;SDS011;53662;50.114;8.626;2023-11-21T08:37:54;32.63;;;8.52;;
49738;SDS011;53662;50.114;8.626;2023-11-21T08:40:20;47.85;;;8.77;;
49738;SDS011;53662;50.114;8.626;2023-11-21T08:42:47;11.18;;;5.90;;
49738;SDS011;53662;50.114;8.626;2023-11-21T08:45:13;43.13;;;7.22;;
49738;SDS011;53662;50.114;8.626;2023-11-21T08:47:39;60.88;;;8.43;;
49738;SDS011;53662;50.114;8.626;2023-11-21T08:50:05;16.27;;;9.80;;
49738;SDS011;53662;50.114;8.626;2023-11-21T08:52:32;8.77;;;6.18;;
49738;SDS011;53662;50.114;8.626;2023-11-21T08:54:58;12.32;;;7.03;;
49738;SDS011;53662;50.114;8.626;2023-11-21T08:57:27;18.08;;;7.13;;
49738;SDS011;53662;50.114;8.626;2023-11-21T08:59:54;13.50;;;6.25;;
49738;SDS011;53662;50.114;8.626;2023-11-21T09:02:25;16.90;;;6.45;;
49738;SDS011;53662;50.114;8.626;2023-11-21T09:04:51;7.78;;;5.82;;
49738;SDS011;53662;50.114;8.626;2023-11-21T09:07:18;25.67;;;7.20;;
49738;SDS011;53662;50.114;8.626;2023-11-21T09:09:45;65.28;;;8.45;;
49738;SDS011;53662;50.114;8.626;2023-11-21T09:12:11;30.92;;;6.35;;
49738;SDS011;53662;50.114;8.626;2023-11-21T09:14:37;14.90;;;6.30;;
49738;SDS011;53662;50.114;8.626;2023-11-21T09:17:04;20.40;;;6.10;;
49738;SDS011;53662;50.114;8.626;2023-11-21T09:19:35;16.20;;;5.68;;
49738;SDS011;53662;50.114;8.626;2023-11-21T09:22:01;19.95;;;7.30;;
49738;SDS011;53662;50.114;8.626;2023-11-21T09:24:27;13.02;;;5.22;;
49738;SDS011;53662;50.114;8.626;2023-11-21T09:26:53;19.65;;;5.43;;
49738;SDS011;53662;50.114;8.626;2023-11-21T09:29:19;8.07;;;5.35;;
49738;SDS011;53662;50.114;8.626;2023-11-21T09:31:45;14.63;;;5.30;;
49738;SDS011;53662;50.114;8.626;2023-11-21T09:34:11;21.30;;;5.32;;
49738;SDS011;53662;50.114;8.626;2023-11-21T09:36:37;8.40;;;4.15;;
49738;SDS011;53662;50.114;8.626;2023-11-21T09:39:04;7.43;;;4.63;;
49738;SDS011;53662;50.114;8.626;2023-11-21T09:41:40;6.95;;;4.28;;
49738;SDS011;53662;50.114;8.626;2023-11-21T09:44:06;15.52;;;5.10;;
49738;SDS011;53662;50.114;8.626;2023-11-21T09:46:36;6.82;;;4.30;;
49738;SDS011;53662;50.114;8.626;2023-11-21T09:49:04;12.45;;;3.80;;
49738;SDS011;53662;50.114;8.626;2023-11-21T09:51:33;13.05;;;3.95;;
49738;SDS011;53662;50.114;8.626;2023-11-21T09:54:03;6.63;;;3.30;;
49738;SDS011;53662;50.114;8.626;2023-11-21T09:56:33;14.18;;;3.85;;
49738;SDS011;53662;50.114;8.626;2023-11-21T09:59:00;11.55;;;4.10;;
49738;SDS011;53662;50.114;8.626;2023-11-21T10:01:31;7.10;;;2.77;;
49738;SDS011;53662;50.114;8.626;2023-11-21T10:03:58;8.45;;;3.95;;
49738;SDS011;53662;50.114;8.626;2023-11-21T10:06:24;20.33;;;3.85;;
49738;SDS011;53662;50.114;8.626;2023-11-21T10:08:52;9.43;;;4.00;;
49738;SDS011;53662;50.114;8.626;2023-11-21T10:11:18;6.70;;;3.45;;
49738;SDS011;53662;50.114;8.626;2023-11-21T10:13:46;7.35;;;3.40;;
49738;SDS011;53662;50.114;8.626;2023-11-21T10:16:14;9.25;;;4.15;;
49738;SDS011;53662;50.114;8.626;2023-11-21T10:18:41;8.25;;;4.07;;
49738;SDS011;53662;50.114;8.626;2023-11-21T10:21:09;8.45;;;4.80;;
49738;SDS011;53662;50.114;8.626;2023-11-21T10:23:36;10.13;;;3.80;;
49738;SDS011;53662;50.114;8.626;2023-11-21T10:26:02;8.90;;;3.83;;
49738;SDS011;53662;50.114;8.626;2023-11-21T10:28:28;13.05;;;4.50;;
49738;SDS011;53662;50.114;8.626;2023-11-21T10:30:54;5.93;;;3.47;;
49738;SDS011;53662;50.114;8.626;2023-11-21T10:33:27;15.38;;;4.00;;
49738;SDS011;53662;50.114;8.626;2023-11-21T10:35:53;9.02;;;3.92;;
49738;SDS011;53662;50.114;8.626;2023-11-21T10:38:20;11.45;;;4.18;;
49738;SDS011;53662;50.114;8.626;2023-11-21T10:40:48;11.68;;;4.63;;
49738;SDS011;53662;50.114;8.626;2023-11-21T10:43:14;17.58;;;4.50;;
49738;SDS011;53662;50.114;8.626;2023-11-21T10:45:40;16.60;;;4.45;;
49738;SDS011;53662;50.114;8.626;2023-11-21T10:48:10;12.30;;;5.13;;
49738;SDS011;53662;50.114;8.626;2023-11-21T10:50:39;11.07;;;5.10;;
49738;SDS011;53662;50.114;8.626;2023-11-21T10:53:05;9.63;;;5.32;;
49738;SDS011;53662;50.114;8.626;2023-11-21T10:55:32;8.05;;;5.47;;
49738;SDS011;53662;50.114;8.626;2023-11-21T10:57:59;10.07;;;5.47;;
49738;SDS011;53662;50.114;8.626;2023-11-21T11:00:27;10.93;;;4.88;;
49738;SDS011;53662;50.114;8.626;2023-11-21T11:02:53;9.57;;;5.43;;
49738;SDS011;53662;50.114;8.626;2023-11-21T11:05:21;6.10;;;4.95;;
49738;SDS011;53662;50.114;8.626;2023-11-21T11:07:48;13.40;;;5.70;;
49738;SDS011;53662;50.114;8.626;2023-11-21T11:10:20;12.27;;;5.47;;
49738;SDS011;53662;50.114;8.626;2023-11-21T11:12:47;12.88;;;5.90;;
49738;SDS011;53662;50.114;8.626;2023-11-21T11:15:15;8.52;;;4.30;;
49738;SDS011;53662;50.114;8.626;2023-11-21T11:17:41;11.43;;;4.93;;
49738;SDS011;53662;50.114;8.626;2023-11-21T11:20:09;7.20;;;4.65;;
49738;SDS011;53662;50.114;8.626;2023-11-21T11:22:40;9.48;;;5.20;;
49738;SDS011;53662;50.114;8.626;2023-11-21T11:27:55;20.35;;;5.50;;
49738;SDS011;53662;50.114;8.626;2023-11-21T11:30:34;10.75;;;6.13;;
49738;SDS011;53662;50.114;8.626;2023-11-21T11:33:10;9.43;;;5.57;;
49738;SDS011;53662;50.114;8.626;2023-11-21T11:35:52;10.27;;;6.00;;
49738;SDS011;53662;50.114;8.626;2023-11-21T11:40:46;5.72;;;4.80;;
49738;SDS011;53662;50.114;8.626;2023-11-21T11:43:12;10.70;;;5.65;;
49738;SDS011;53662;50.114;8.626;2023-11-21T11:45:38;10.18;;;5.22;;
49738;SDS011;53662;50.114;8.626;2023-11-21T11:48:07;6.25;;;5.50;;
49738;SDS011;53662;50.114;8.626;2023-11-21T11:50:33;9.07;;;5.82;;
49738;SDS011;53662;50.114;8.626;2023-11-21T11:53:12;12.95;;;6.05;;
49738;SDS011;53662;50.114;8.626;2023-11-21T11:55:38;7.40;;;5.75;;
49738;SDS011;53662;50.114;8.626;2023-11-21T11:58:05;11.70;;;6.10;;
49738;SDS011;53662;50.114;8.626;2023-11-21T12:03:00;8.82;;;4.70;;
49738;SDS011;53662;50.114;8.626;2023-11-21T12:05:28;8.77;;;5.18;;
49738;SDS011;53662;50.114;8.626;2023-11-21T12:07:58;8.38;;;5.07;;
49738;SDS011;53662;50.114;8.626;2023-11-21T12:10:35;26.23;;;6.15;;
49738;SDS011;53662;50.114;8.626;2023-11-21T12:13:03;10.82;;;5.07;;
49738;SDS011;53662;50.114;8.626;2023-11-21T12:15:32;9.90;;;4.82;;
49738;SDS011;53662;50.114;8.626;2023-11-21T12:17:58;8.77;;;4.60;;
49738;SDS011;53662;50.114;8.626;2023-11-21T12:20:24;12.65;;;5.28;;
49738;SDS011;53662;50.114;8.626;2023-11-21T12:22:52;7.65;;;4.78;;
49738;SDS011;53662;50.114;8.626;2023-11-21T12:25:22;9.35;;;4.35;;
49738;SDS011;53662;50.114;8.626;2023-11-21T12:27:49;7.55;;;4.60;;
49738;SDS011;53662;50.114;8.626;2023-11-21T12:30:16;6.60;;;4.93;;
49738;SDS011;53662;50.114;8.626;2023-11-21T12:32:42;28.25;;;5.03;;
49738;SDS011;53662;50.114;8.626;2023-11-21T12:35:09;28.38;;;5.13;;
49738;SDS011;53662;50.114;8.626;2023-11-21T12:37:38;9.43;;;5.22;;
49738;SDS011;53662;50.114;8.626;2023-11-21T12:40:05;9.02;;;4.47;;
49738;SDS011;53662;50.114;8.626;2023-11-21T12:42:37;7.82;;;5.15;;
49738;SDS011;53662;50.114;8.626;2023-11-21T12:45:18;11.55;;;5.25;;
49738;SDS011;53662;50.114;8.626;2023-11-21T12:47:45;14.00;;;5.32;;
49738;SDS011;53662;50.114;8.626;2023-11-21T12:50:11;12.48;;;5.18;;
49738;SDS011;53662;50.114;8.626;2023-11-21T12:52:44;13.07;;;4.53;;
49738;SDS011;53662;50.114;8.626;2023-11-21T12:55:14;11.65;;;4.88;;
49738;SDS011;53662;50.114;8.626;2023-11-21T12:57:47;8.57;;;4.22;;
49738;SDS011;53662;50.114;8.626;2023-11-21T13:00:15;7.70;;;4.43;;
49738;SDS011;53662;50.114;8.626;2023-11-21T13:02:51;8.32;;;4.38;;
49738;SDS011;53662;50.114;8.626;2023-11-21T13:07:55;10.52;;;5.38;;
49738;SDS011;53662;50.114;8.626;2023-11-21T13:10:23;8.55;;;4.38;;
49738;SDS011;53662;50.114;8.626;2023-11-21T13:12:59;12.68;;;4.80;;
49738;SDS011;53662;50.114;8.626;2023-11-21T13:15:26;6.18;;;4.63;;
49738;SDS011;53662;50.114;8.626;2023-11-21T13:17:52;11.10;;;4.97;;
49738;SDS011;53662;50.114;8.626;2023-11-21T13:20:19;8.50;;;4.47;;
49738;SDS011;53662;50.114;8.626;2023-11-21T13:22:49;11.52;;;4.97;;
49738;SDS011;53662;50.114;8.626;2023-11-21T13:25:18;10.57;;;4.90;;
49738;SDS011;53662;50.114;8.626;2023-11-21T13:27:44;11.10;;;5.50;;
49738;SDS011;53662;50.114;8.626;2023-11-21T13:30:11;8.77;;;4.88;;
49738;SDS011;53662;50.114;8.626;2023-11-21T13:32:40;10.40;;;5.10;;
49738;SDS011;53662;50.114;8.626;2023-11-21T13:35:06;12.07;;;4.90;;
49738;SDS011;53662;50.114;8.626;2023-11-21T13:37:33;10.68;;;5.32;;
49738;SDS011;53662;50.114;8.626;2023-11-21T13:39:59;11.63;;;4.82;;
49738;SDS011;53662;50.114;8.626;2023-11-21T13:42:28;8.85;;;4.40;;
49738;SDS011;53662;50.114;8.626;2023-11-21T13:44:58;10.73;;;5.68;;
49738;SDS011;53662;50.114;8.626;2023-11-21T13:47:24;6.60;;;4.22;;
49738;SDS011;53662;50.114;8.626;2023-11-21T13:49:54;8.18;;;5.05;;
49738;SDS011;53662;50.114;8.626;2023-11-21T13:52:20;10.07;;;4.95;;
49738;SDS011;53662;50.114;8.626;2023-11-21T13:54:51;17.13;;;5.55;;
49738;SDS011;53662;50.114;8.626;2023-11-21T13:57:17;14.55;;;5.53;;
49738;SDS011;53662;50.114;8.626;2023-11-21T13:59:43;7.38;;;4.95;;
49738;SDS011;53662;50.114;8.626;2023-11-21T14:02:09;10.88;;;4.63;;
49738;SDS011;53662;50.114;8.626;2023-11-21T14:04:46;8.52;;;5.10;;
49738;SDS011;53662;50.114;8.626;2023-11-21T14:07:20;8.38;;;5.18;;
49738;SDS011;53662;50.114;8.626;2023-11-21T14:10:01;12.13;;;5.63;;
49738;SDS011;53662;50.114;8.626;2023-11-21T14:12:28;22.92;;;5.22;;
49738;SDS011;53662;50.114;8.626;2023-11-21T14:14:58;15.52;;;4.97;;
49738;SDS011;53662;50.114;8.626;2023-11-21T14:17:25;12.38;;;4.82;;
49738;SDS011;53662;50.114;8.626;2023-11-21T14:19:52;13.65;;;5.35;;
49738;SDS011;53662;50.114;8.626;2023-11-21T14:22:20;13.80;;;4.90;;
49738;SDS011;53662;50.114;8.626;2023-11-21T14:24:46;17.52;;;6.30;;
49738;SDS011;53662;50.114;8.626;2023-11-21T14:27:12;8.15;;;5.18;;
49738;SDS011;53662;50.114;8.626;2023-11-21T14:29:39;11.70;;;5.90;;
49738;SDS011;53662;50.114;8.626;2023-11-21T14:32:09;7.78;;;5.20;;
49738;SDS011;53662;50.114;8.626;2023-11-21T14:34:36;9.57;;;5.45;;
49738;SDS011;53662;50.114;8.626;2023-11-21T14:37:03;10.98;;;5.63;;
49738;SDS011;53662;50.114;8.626;2023-11-21T14:39:29;16.02;;;6.75;;
49738;SDS011;53662;50.114;8.626;2023-11-21T14:41:55;10.25;;;5.40;;
49738;SDS011;53662;50.114;8.626;2023-11-21T14:44:21;14.25;;;6.80;;
49738;SDS011;53662;50.114;8.626;2023-11-21T14:46:51;8.48;;;5.60;;
49738;SDS011;53662;50.114;8.626;2023-11-21T14:49:18;19.63;;;6.80;;
49738;SDS011;53662;50.114;8.626;2023-11-21T14:51:48;12.50;;;6.72;;
49738;SDS011;53662;50.114;8.626;2023-11-21T14:54:42;10.02;;;6.10;;